createdAt,value
2023-01-29T00:01:15.584Z,4.60
2023-01-29T00:05:27.496Z,6.20
2023-01-29T00:09:30.295Z,5.70
2023-01-29T00:13:22.366Z,5.60
2023-01-29T00:17:15.841Z,4.90
2023-01-29T00:21:20.542Z,5.30
2023-01-29T00:25:21.256Z,5.00
2023-01-29T00:29:23.434Z,6.10
2023-01-29T00:33:14.501Z,5.70
2023-01-29T00:40:56.601Z,4.90
2023-01-29T00:44:43.965Z,5.20
2023-01-29T00:48:46.358Z,4.10
2023-01-29T00:52:49.632Z,7.70
2023-01-29T00:56:51.939Z,6.90
2023-01-29T01:01:34.194Z,3.80
2023-01-29T01:05:44.715Z,4.30
2023-01-29T01:09:51.976Z,3.40
2023-01-29T01:13:57.155Z,4.20
2023-01-29T01:17:52.064Z,4.40
2023-01-29T01:22:04.452Z,4.80
2023-01-29T01:26:18.164Z,4.60
2023-01-29T01:30:20.799Z,4.50
2023-01-29T01:34:23.077Z,3.30
2023-01-29T01:38:18.329Z,6.60
2023-01-29T01:42:15.908Z,3.80
2023-01-29T01:46:18.138Z,4.20
2023-01-29T01:50:12.086Z,4.00
2023-01-29T01:54:17.287Z,3.40
2023-01-29T01:58:19.670Z,3.30
2023-01-29T02:05:36.407Z,3.20
2023-01-29T02:09:56.950Z,3.20
2023-01-29T02:13:49.450Z,3.50
2023-01-29T02:17:34.350Z,3.40
2023-01-29T02:21:29.322Z,3.30
2023-01-29T02:25:58.947Z,3.10
2023-01-29T02:30:04.847Z,2.40
2023-01-29T02:34:11.734Z,2.50
2023-01-29T02:38:07.551Z,2.60
2023-01-29T02:42:15.733Z,2.80
2023-01-29T02:46:25.116Z,5.30
2023-01-29T02:50:30.117Z,2.80
2023-01-29T02:54:42.783Z,3.20
2023-01-29T02:58:18.685Z,3.10
2023-01-29T03:02:33.011Z,2.90
2023-01-29T03:06:44.055Z,3.40
2023-01-29T03:10:29.535Z,3.10
2023-01-29T03:14:32.125Z,2.80
2023-01-29T03:18:27.736Z,3.00
2023-01-29T03:22:38.476Z,2.60
2023-01-29T03:26:17.124Z,3.00
2023-01-29T03:30:10.785Z,2.90
2023-01-29T03:34:06.437Z,2.80
2023-01-29T03:38:11.747Z,2.80
2023-01-29T03:42:20.415Z,3.00
2023-01-29T03:46:24.344Z,3.50
2023-01-29T03:50:00.673Z,3.70
2023-01-29T03:53:56.493Z,3.00
2023-01-29T03:58:10.449Z,3.50
2023-01-29T04:02:25.135Z,3.50
2023-01-29T04:06:27.405Z,3.60
2023-01-29T04:10:30.761Z,3.80
2023-01-29T04:14:33.642Z,4.50
2023-01-29T04:18:21.782Z,2.50
2023-01-29T04:22:24.228Z,2.40
2023-01-29T04:26:25.369Z,2.80
2023-01-29T04:30:37.637Z,3.10
2023-01-29T04:34:38.037Z,2.50
2023-01-29T04:38:49.093Z,3.00
2023-01-29T04:42:57.636Z,2.60
2023-01-29T04:47:02.948Z,3.00
2023-01-29T04:51:06.142Z,2.90
2023-01-29T04:55:14.403Z,2.60
2023-01-29T04:59:19.771Z,2.70
2023-01-29T05:03:07.017Z,2.90
2023-01-29T05:07:09.231Z,2.40
2023-01-29T05:10:46.471Z,3.00
2023-01-29T05:14:39.131Z,2.80
2023-01-29T05:18:12.586Z,3.00
2023-01-29T05:21:47.535Z,3.50
2023-01-29T05:26:02.908Z,2.80
2023-01-29T05:29:50.062Z,3.40
2023-01-29T05:33:42.790Z,3.50
2023-01-29T05:37:43.063Z,2.70
2023-01-29T05:41:45.277Z,2.60
2023-01-29T05:45:36.166Z,2.80
2023-01-29T05:49:22.257Z,4.60
2023-01-29T05:53:19.709Z,2.10
2023-01-29T05:56:44.963Z,2.40
2023-01-29T06:00:37.791Z,2.90
2023-01-29T06:04:40.060Z,2.30
2023-01-29T06:08:45.147Z,2.80
2023-01-29T06:12:40.267Z,2.30
2023-01-29T06:16:45.779Z,2.80
2023-01-29T06:20:45.403Z,3.90
2023-01-29T06:24:44.821Z,2.20
2023-01-29T06:28:45.996Z,3.50
2023-01-29T06:32:40.707Z,2.60
2023-01-29T06:36:42.104Z,2.60
2023-01-29T06:40:40.673Z,2.60
2023-01-29T06:44:37.899Z,3.30
2023-01-29T06:48:46.825Z,3.30
2023-01-29T06:52:31.223Z,2.30
2023-01-29T06:56:33.455Z,2.90
2023-01-29T07:00:25.415Z,3.60
2023-01-29T07:04:20.912Z,5.60
2023-01-29T07:08:08.793Z,3.50
2023-01-29T07:12:13.068Z,3.30
2023-01-29T07:16:11.244Z,6.60
2023-01-29T07:19:53.410Z,6.10
2023-01-29T07:23:55.814Z,3.50
2023-01-29T07:27:48.082Z,3.20
2023-01-29T07:31:39.042Z,2.90
2023-01-29T07:35:27.091Z,2.70
2023-01-29T07:39:19.229Z,8.00
2023-01-29T07:43:14.835Z,3.30
2023-01-29T07:47:17.387Z,4.20
2023-01-29T07:51:13.485Z,3.90
2023-01-29T07:55:05.541Z,5.70
2023-01-29T07:59:06.472Z,3.10
2023-01-29T08:03:08.700Z,4.00
2023-01-29T08:07:10.899Z,4.80
2023-01-29T08:11:13.625Z,3.90
2023-01-29T08:15:11.680Z,4.80
2023-01-29T08:19:13.934Z,6.30
2023-01-29T08:23:15.757Z,4.40
2023-01-29T08:26:58.398Z,4.90
2023-01-29T08:30:51.029Z,4.90
2023-01-29T08:34:56.228Z,5.50
2023-01-29T08:38:58.108Z,4.80
2023-01-29T08:42:49.216Z,4.30
2023-01-29T08:46:41.565Z,6.50
2023-01-29T08:50:43.898Z,5.50
2023-01-29T08:54:28.969Z,6.40
2023-01-29T08:58:19.730Z,5.00
2023-01-29T09:02:09.543Z,4.90
2023-01-29T09:06:11.650Z,5.20
2023-01-29T09:10:13.892Z,6.30
2023-01-29T09:14:16.111Z,6.30
2023-01-29T09:18:11.485Z,6.30
2023-01-29T09:21:48.852Z,6.10
2023-01-29T09:25:54.074Z,6.50
2023-01-29T09:29:38.117Z,5.80
2023-01-29T09:33:23.386Z,9.10
2023-01-29T09:37:25.176Z,7.20
2023-01-29T09:41:30.084Z,7.20
2023-01-29T09:45:56.471Z,6.30
2023-01-29T09:50:06.452Z,7.80
2023-01-29T09:54:07.096Z,6.00
2023-01-29T09:58:09.332Z,6.80
2023-01-29T10:02:17.310Z,9.40
2023-01-29T10:06:32.243Z,6.50
2023-01-29T10:10:34.482Z,6.00
2023-01-29T10:14:55.902Z,7.80
2023-01-29T10:19:10.259Z,6.60
2023-01-29T10:23:12.451Z,7.10
2023-01-29T10:27:13.204Z,6.30
2023-01-29T10:31:09.230Z,7.40
2023-01-29T10:35:13.911Z,9.80
2023-01-29T10:39:25.202Z,8.30
2023-01-29T10:43:06.724Z,7.70
2023-01-29T10:47:07.270Z,9.00
2023-01-29T10:51:21.143Z,9.60
2023-01-29T10:55:40.101Z,9.60
2023-01-29T10:59:48.370Z,9.40
2023-01-29T11:03:47.381Z,9.30
2023-01-29T11:07:49.594Z,10.10
2023-01-29T11:11:57.506Z,10.70
2023-01-29T11:15:46.928Z,9.30
2023-01-29T11:19:48.645Z,7.70
2023-01-29T11:23:59.919Z,7.70
2023-01-29T11:28:08.351Z,8.70
2023-01-29T11:32:16.859Z,8.70
2023-01-29T11:35:58.481Z,7.30
2023-01-29T11:40:09.520Z,8.60
2023-01-29T11:44:13.808Z,8.30
2023-01-29T11:48:16.563Z,8.30
2023-01-29T11:52:17.975Z,7.70
2023-01-29T11:56:14.609Z,8.40
2023-01-29T12:00:16.153Z,9.50
2023-01-29T12:04:24.297Z,7.10
2023-01-29T12:08:25.529Z,11.70
2023-01-29T12:12:12.867Z,12.20
2023-01-29T12:16:15.183Z,8.60
2023-01-29T12:20:17.811Z,9.30
2023-01-29T12:24:35.197Z,9.80
2023-01-29T12:28:54.091Z,8.70
2023-01-29T12:33:18.001Z,7.70
2023-01-29T12:37:27.283Z,6.50
2023-01-29T12:41:35.353Z,9.50
2023-01-29T12:45:37.578Z,7.00
2023-01-29T12:49:33.627Z,8.90
2023-01-29T12:53:40.341Z,7.50
2023-01-29T12:58:15.926Z,7.30
2023-01-29T13:02:33.738Z,10.50
2023-01-29T13:07:43.914Z,7.10
2023-01-29T13:11:05.304Z,8.20
2023-01-29T13:15:14.394Z,8.80
2023-01-29T13:19:02.729Z,6.70
2023-01-29T13:23:00.573Z,7.20
2023-01-29T13:26:38.279Z,8.40
2023-01-29T13:30:42.956Z,7.90
2023-01-29T13:35:21.065Z,7.60
2023-01-29T13:39:23.151Z,9.30
2023-01-29T13:43:10.997Z,9.40
2023-01-29T13:47:13.170Z,9.30
2023-01-29T13:51:14.854Z,8.50
2023-01-29T13:58:56.046Z,12.70
2023-01-29T14:02:56.917Z,7.30
2023-01-29T14:07:17.367Z,8.50
2023-01-29T14:10:56.469Z,9.50
2023-01-29T14:14:56.766Z,9.30
2023-01-29T14:19:08.856Z,9.40
2023-01-29T14:23:11.059Z,8.80
2023-01-29T14:26:56.982Z,7.50
2023-01-29T14:30:59.280Z,8.70
2023-01-29T14:35:02.661Z,8.70
2023-01-29T14:38:58.658Z,8.40
2023-01-29T14:42:59.646Z,7.10
2023-01-29T14:47:13.606Z,9.10
2023-01-29T14:51:31.007Z,9.00
2023-01-29T14:55:33.174Z,8.00
2023-01-29T14:59:44.031Z,8.70
2023-01-29T15:03:39.703Z,7.70
2023-01-29T15:07:39.378Z,8.30
2023-01-29T15:11:54.470Z,8.00
2023-01-29T15:16:05.953Z,8.20
2023-01-29T15:20:16.643Z,7.30
2023-01-29T15:24:21.791Z,6.60
2023-01-29T15:28:07.766Z,7.70
2023-01-29T15:32:07.176Z,7.10
2023-01-29T15:36:57.435Z,8.30
2023-01-29T15:40:41.023Z,7.50
2023-01-29T15:44:26.231Z,6.30
2023-01-29T15:48:22.708Z,7.00
2023-01-29T15:52:25.005Z,8.60
2023-01-29T15:56:27.466Z,6.60
2023-01-29T16:00:32.703Z,6.50
2023-01-29T16:04:34.230Z,7.20
2023-01-29T16:08:36.415Z,8.50
2023-01-29T16:12:38.897Z,6.60
2023-01-29T16:16:49.746Z,6.00
2023-01-29T16:20:28.354Z,7.00
2023-01-29T16:24:30.651Z,7.40
2023-01-29T16:28:32.827Z,7.20
2023-01-29T16:32:26.714Z,6.70
2023-01-29T16:36:27.826Z,7.80
2023-01-29T16:40:21.586Z,7.70
2023-01-29T16:44:23.761Z,7.40
2023-01-29T16:48:36.127Z,7.40
2023-01-29T16:52:39.379Z,7.40
2023-01-29T16:56:40.136Z,7.90
2023-01-29T17:00:37.219Z,8.30
2023-01-29T17:04:38.032Z,6.80
2023-01-29T17:08:28.023Z,7.00
2023-01-29T17:12:17.236Z,9.90
2023-01-29T17:16:34.719Z,7.10
2023-01-29T17:20:33.898Z,6.70
2023-01-29T17:24:20.357Z,8.40
2023-01-29T17:28:05.334Z,8.80
2023-01-29T17:32:02.563Z,7.10
2023-01-29T17:35:57.877Z,6.40
2023-01-29T17:39:45.375Z,7.30
2023-01-29T17:43:23.175Z,11.60
2023-01-29T17:47:25.442Z,7.90
2023-01-29T17:51:28.419Z,8.60
2023-01-29T17:55:23.511Z,6.70
2023-01-29T17:59:25.877Z,7.10
2023-01-29T18:03:27.155Z,7.00
2023-01-29T18:07:31.867Z,6.50
2023-01-29T18:11:36.684Z,6.10
2023-01-29T18:15:37.753Z,7.10
2023-01-29T18:19:25.096Z,5.90
2023-01-29T18:23:05.728Z,6.70
2023-01-29T18:30:32.270Z,11.60
2023-01-29T18:34:43.060Z,5.40
2023-01-29T18:38:47.564Z,7.30
2023-01-29T18:42:44.069Z,7.00
2023-01-29T18:46:23.481Z,7.30
2023-01-29T18:50:24.399Z,6.80
2023-01-29T18:54:28.914Z,10.00
2023-01-29T18:58:27.151Z,11.50
2023-01-29T19:02:29.551Z,8.40
2023-01-29T19:06:32.386Z,6.90
2023-01-29T19:10:35.748Z,8.40
2023-01-29T19:14:37.998Z,7.70
2023-01-29T19:18:28.433Z,8.20
2023-01-29T19:22:20.493Z,8.10
2023-01-29T19:26:17.947Z,8.30
2023-01-29T19:30:25.368Z,7.90
2023-01-29T19:34:27.641Z,7.00
2023-01-29T19:38:30.592Z,8.80
2023-01-29T19:42:16.069Z,8.60
2023-01-29T19:46:19.711Z,8.60
2023-01-29T19:50:22.050Z,6.50
2023-01-29T19:54:24.287Z,8.40
2023-01-29T19:58:25.006Z,7.00
2023-01-29T20:02:26.941Z,7.20
2023-01-29T20:06:28.560Z,7.70
2023-01-29T20:10:31.102Z,7.10
2023-01-29T20:14:27.358Z,8.30
2023-01-29T20:18:13.234Z,7.80
2023-01-29T20:22:15.400Z,8.30
2023-01-29T20:26:18.818Z,9.50
2023-01-29T20:30:13.241Z,9.40
2023-01-29T20:34:14.178Z,8.30
2023-01-29T20:38:25.501Z,8.70
2023-01-29T20:42:27.770Z,9.20
2023-01-29T20:46:30.110Z,8.80
2023-01-29T20:49:48.768Z,7.50
2023-01-29T20:53:50.958Z,7.90
2023-01-29T20:58:05.237Z,8.60
2023-01-29T21:01:59.624Z,8.90
2023-01-29T21:06:12.769Z,7.60
2023-01-29T21:10:15.115Z,8.30
2023-01-29T21:14:17.475Z,7.50
2023-01-29T21:18:23.821Z,8.10
2023-01-29T21:22:45.874Z,7.10
2023-01-29T21:26:48.173Z,6.70
2023-01-29T21:30:57.146Z,8.10
2023-01-29T21:34:59.338Z,9.00
2023-01-29T21:39:07.690Z,7.60
2023-01-29T21:43:06.786Z,7.40
2023-01-29T21:46:49.265Z,7.90
2023-01-29T21:50:28.000Z,8.00
2023-01-29T21:54:21.354Z,8.50
2023-01-29T21:58:14.871Z,8.70
2023-01-29T22:02:17.282Z,6.90
2023-01-29T22:06:19.469Z,9.30
2023-01-29T22:10:36.050Z,8.30
2023-01-29T22:14:37.293Z,7.90
2023-01-29T22:18:29.809Z,7.30
2023-01-29T22:22:15.006Z,7.90
2023-01-29T22:26:16.782Z,9.80
2023-01-29T22:30:19.425Z,7.10
2023-01-29T22:34:14.377Z,10.40
2023-01-29T22:38:16.565Z,8.30
2023-01-29T22:42:10.264Z,8.00
2023-01-29T22:45:58.525Z,8.00
2023-01-29T22:49:39.792Z,7.00
2023-01-29T22:53:40.396Z,9.70
2023-01-29T22:57:36.091Z,7.60
2023-01-29T23:01:31.406Z,5.90
2023-01-29T23:05:26.804Z,7.40
2023-01-29T23:09:34.386Z,8.60
2023-01-29T23:13:25.121Z,7.00
2023-01-29T23:17:02.524Z,6.20
2023-01-29T23:20:47.828Z,6.20
2023-01-29T23:24:50.078Z,6.90
2023-01-29T23:28:52.311Z,6.40
2023-01-29T23:32:35.599Z,6.40
2023-01-29T23:36:37.810Z,6.70
2023-01-29T23:40:39.968Z,5.60
2023-01-29T23:44:42.184Z,7.80
2023-01-29T23:48:43.131Z,6.90
2023-01-29T23:52:38.786Z,6.90
2023-01-29T23:56:33.717Z,7.00
